sensor_id;sensor_type;location;lat;lon;timestamp;P1;durP1;ratioP1;P2;durP2;ratioP2
67902;SDS011;54708;43.612;1.568;2023-05-07T00:00:58;8.48;;;4.68;;
67902;SDS011;54708;43.612;1.568;2023-05-07T00:03:24;10.52;;;5.03;;
67902;SDS011;54708;43.612;1.568;2023-05-07T00:05:51;9.65;;;6.18;;
67902;SDS011;54708;43.612;1.568;2023-05-07T00:08:18;15.07;;;5.63;;
67902;SDS011;54708;43.612;1.568;2023-05-07T00:10:43;9.50;;;4.95;;
67902;SDS011;54708;43.612;1.568;2023-05-07T00:13:09;8.38;;;4.93;;
67902;SDS011;54708;43.612;1.568;2023-05-07T00:15:35;10.77;;;5.28;;
67902;SDS011;54708;43.612;1.568;2023-05-07T00:18:00;11.27;;;5.70;;
67902;SDS011;54708;43.612;1.568;2023-05-07T00:20:26;9.13;;;5.68;;
67902;SDS011;54708;43.612;1.568;2023-05-07T00:22:51;11.85;;;5.00;;
67902;SDS011;54708;43.612;1.568;2023-05-07T00:25:18;10.68;;;5.53;;
67902;SDS011;54708;43.612;1.568;2023-05-07T00:27:44;10.23;;;5.18;;
67902;SDS011;54708;43.612;1.568;2023-05-07T00:30:10;9.43;;;5.45;;
67902;SDS011;54708;43.612;1.568;2023-05-07T00:32:36;8.77;;;5.30;;
67902;SDS011;54708;43.612;1.568;2023-05-07T00:35:02;9.98;;;5.03;;
67902;SDS011;54708;43.612;1.568;2023-05-07T00:37:28;10.05;;;4.78;;
67902;SDS011;54708;43.612;1.568;2023-05-07T00:39:53;9.90;;;5.32;;
67902;SDS011;54708;43.612;1.568;2023-05-07T00:42:19;10.35;;;5.30;;
67902;SDS011;54708;43.612;1.568;2023-05-07T00:44:44;11.15;;;4.75;;
67902;SDS011;54708;43.612;1.568;2023-05-07T00:47:10;11.98;;;5.28;;
67902;SDS011;54708;43.612;1.568;2023-05-07T00:49:41;7.20;;;5.60;;
67902;SDS011;54708;43.612;1.568;2023-05-07T00:52:07;8.77;;;4.40;;
67902;SDS011;54708;43.612;1.568;2023-05-07T00:54:33;13.90;;;4.95;;
67902;SDS011;54708;43.612;1.568;2023-05-07T00:56:59;12.35;;;5.30;;
67902;SDS011;54708;43.612;1.568;2023-05-07T00:59:25;9.48;;;4.82;;
67902;SDS011;54708;43.612;1.568;2023-05-07T01:01:51;11.05;;;5.00;;
67902;SDS011;54708;43.612;1.568;2023-05-07T01:04:17;9.43;;;5.20;;
67902;SDS011;54708;43.612;1.568;2023-05-07T01:06:42;6.97;;;4.50;;
67902;SDS011;54708;43.612;1.568;2023-05-07T01:09:09;12.57;;;4.70;;
67902;SDS011;54708;43.612;1.568;2023-05-07T01:11:34;9.73;;;4.68;;
67902;SDS011;54708;43.612;1.568;2023-05-07T01:14:00;11.02;;;5.05;;
67902;SDS011;54708;43.612;1.568;2023-05-07T01:16:25;15.38;;;4.97;;
67902;SDS011;54708;43.612;1.568;2023-05-07T01:18:51;13.73;;;5.20;;
67902;SDS011;54708;43.612;1.568;2023-05-07T01:21:17;6.50;;;4.43;;
67902;SDS011;54708;43.612;1.568;2023-05-07T01:23:43;9.20;;;3.95;;
67902;SDS011;54708;43.612;1.568;2023-05-07T01:26:10;8.25;;;4.43;;
67902;SDS011;54708;43.612;1.568;2023-05-07T01:28:35;11.10;;;4.75;;
67902;SDS011;54708;43.612;1.568;2023-05-07T01:31:02;9.32;;;4.15;;
67902;SDS011;54708;43.612;1.568;2023-05-07T01:33:29;10.70;;;4.55;;
67902;SDS011;54708;43.612;1.568;2023-05-07T01:35:56;10.90;;;4.53;;
67902;SDS011;54708;43.612;1.568;2023-05-07T01:38:23;8.35;;;4.13;;
67902;SDS011;54708;43.612;1.568;2023-05-07T01:40:49;9.40;;;4.35;;
67902;SDS011;54708;43.612;1.568;2023-05-07T01:43:14;12.30;;;3.78;;
67902;SDS011;54708;43.612;1.568;2023-05-07T01:45:40;11.30;;;4.70;;
67902;SDS011;54708;43.612;1.568;2023-05-07T01:48:06;9.45;;;4.28;;
67902;SDS011;54708;43.612;1.568;2023-05-07T01:50:32;11.75;;;3.80;;
67902;SDS011;54708;43.612;1.568;2023-05-07T01:52:58;5.13;;;3.47;;
67902;SDS011;54708;43.612;1.568;2023-05-07T01:55:24;12.13;;;3.65;;
67902;SDS011;54708;43.612;1.568;2023-05-07T01:57:49;8.48;;;3.95;;
67902;SDS011;54708;43.612;1.568;2023-05-07T02:00:15;8.57;;;4.20;;
67902;SDS011;54708;43.612;1.568;2023-05-07T02:02:41;11.63;;;3.85;;
67902;SDS011;54708;43.612;1.568;2023-05-07T02:05:06;13.35;;;4.65;;
67902;SDS011;54708;43.612;1.568;2023-05-07T02:07:32;10.38;;;3.38;;
67902;SDS011;54708;43.612;1.568;2023-05-07T02:09:58;10.18;;;3.72;;
67902;SDS011;54708;43.612;1.568;2023-05-07T02:12:23;12.43;;;4.38;;
67902;SDS011;54708;43.612;1.568;2023-05-07T02:14:49;7.97;;;3.72;;
67902;SDS011;54708;43.612;1.568;2023-05-07T02:17:14;9.77;;;3.50;;
67902;SDS011;54708;43.612;1.568;2023-05-07T02:19:40;8.65;;;4.60;;
67902;SDS011;54708;43.612;1.568;2023-05-07T02:22:05;9.13;;;3.70;;
67902;SDS011;54708;43.612;1.568;2023-05-07T02:24:31;8.18;;;3.67;;
67902;SDS011;54708;43.612;1.568;2023-05-07T02:26:56;9.48;;;3.75;;
67902;SDS011;54708;43.612;1.568;2023-05-07T02:29:22;9.93;;;4.00;;
67902;SDS011;54708;43.612;1.568;2023-05-07T02:31:47;6.35;;;3.50;;
67902;SDS011;54708;43.612;1.568;2023-05-07T02:34:16;8.77;;;4.57;;
67902;SDS011;54708;43.612;1.568;2023-05-07T02:36:41;12.75;;;4.72;;
67902;SDS011;54708;43.612;1.568;2023-05-07T02:39:07;6.95;;;3.38;;
67902;SDS011;54708;43.612;1.568;2023-05-07T02:41:32;5.32;;;3.58;;
67902;SDS011;54708;43.612;1.568;2023-05-07T02:43:57;11.43;;;4.55;;
67902;SDS011;54708;43.612;1.568;2023-05-07T02:46:23;12.73;;;4.07;;
67902;SDS011;54708;43.612;1.568;2023-05-07T02:48:48;10.98;;;3.83;;
67902;SDS011;54708;43.612;1.568;2023-05-07T02:51:14;9.40;;;3.05;;
67902;SDS011;54708;43.612;1.568;2023-05-07T02:53:39;15.82;;;5.05;;
67902;SDS011;54708;43.612;1.568;2023-05-07T02:56:04;8.82;;;3.88;;
67902;SDS011;54708;43.612;1.568;2023-05-07T02:58:31;10.07;;;3.78;;
67902;SDS011;54708;43.612;1.568;2023-05-07T03:00:56;14.82;;;3.90;;
67902;SDS011;54708;43.612;1.568;2023-05-07T03:03:22;9.27;;;3.65;;
67902;SDS011;54708;43.612;1.568;2023-05-07T03:05:48;10.27;;;4.22;;
67902;SDS011;54708;43.612;1.568;2023-05-07T03:08:13;16.50;;;3.40;;
67902;SDS011;54708;43.612;1.568;2023-05-07T03:10:40;12.57;;;3.40;;
67902;SDS011;54708;43.612;1.568;2023-05-07T03:13:05;8.50;;;3.63;;
67902;SDS011;54708;43.612;1.568;2023-05-07T03:15:31;12.73;;;3.67;;
67902;SDS011;54708;43.612;1.568;2023-05-07T03:17:56;9.98;;;4.15;;
67902;SDS011;54708;43.612;1.568;2023-05-07T03:20:21;15.55;;;4.45;;
67902;SDS011;54708;43.612;1.568;2023-05-07T03:22:47;11.45;;;4.03;;
67902;SDS011;54708;43.612;1.568;2023-05-07T03:25:12;11.00;;;4.13;;
67902;SDS011;54708;43.612;1.568;2023-05-07T03:27:39;10.90;;;3.45;;
67902;SDS011;54708;43.612;1.568;2023-05-07T03:30:04;10.65;;;3.70;;
67902;SDS011;54708;43.612;1.568;2023-05-07T03:32:31;13.57;;;3.40;;
67902;SDS011;54708;43.612;1.568;2023-05-07T03:34:57;7.78;;;3.75;;
67902;SDS011;54708;43.612;1.568;2023-05-07T03:37:22;10.25;;;3.55;;
67902;SDS011;54708;43.612;1.568;2023-05-07T03:39:48;14.73;;;3.30;;
67902;SDS011;54708;43.612;1.568;2023-05-07T03:42:13;16.45;;;6.18;;
67902;SDS011;54708;43.612;1.568;2023-05-07T03:44:40;13.15;;;3.50;;
67902;SDS011;54708;43.612;1.568;2023-05-07T03:47:05;13.88;;;3.60;;
67902;SDS011;54708;43.612;1.568;2023-05-07T03:49:30;10.50;;;4.32;;
67902;SDS011;54708;43.612;1.568;2023-05-07T03:51:56;8.20;;;3.38;;
67902;SDS011;54708;43.612;1.568;2023-05-07T03:54:21;8.95;;;3.47;;
67902;SDS011;54708;43.612;1.568;2023-05-07T03:56:47;18.05;;;4.28;;
67902;SDS011;54708;43.612;1.568;2023-05-07T03:59:12;9.10;;;3.42;;
67902;SDS011;54708;43.612;1.568;2023-05-07T04:01:38;11.70;;;4.03;;
67902;SDS011;54708;43.612;1.568;2023-05-07T04:04:03;12.23;;;3.80;;
67902;SDS011;54708;43.612;1.568;2023-05-07T04:06:30;10.00;;;4.18;;
67902;SDS011;54708;43.612;1.568;2023-05-07T04:08:56;9.10;;;3.70;;
67902;SDS011;54708;43.612;1.568;2023-05-07T04:11:21;7.13;;;3.50;;
67902;SDS011;54708;43.612;1.568;2023-05-07T04:13:47;7.78;;;3.55;;
67902;SDS011;54708;43.612;1.568;2023-05-07T04:16:12;10.82;;;3.90;;
67902;SDS011;54708;43.612;1.568;2023-05-07T04:18:38;9.70;;;4.20;;
67902;SDS011;54708;43.612;1.568;2023-05-07T04:21:03;12.20;;;4.50;;
67902;SDS011;54708;43.612;1.568;2023-05-07T04:23:29;16.05;;;4.38;;
67902;SDS011;54708;43.612;1.568;2023-05-07T04:25:54;14.07;;;4.47;;
67902;SDS011;54708;43.612;1.568;2023-05-07T04:28:20;14.27;;;4.63;;
67902;SDS011;54708;43.612;1.568;2023-05-07T04:30:45;12.95;;;3.83;;
67902;SDS011;54708;43.612;1.568;2023-05-07T04:33:11;13.98;;;4.53;;
67902;SDS011;54708;43.612;1.568;2023-05-07T04:35:37;9.45;;;4.47;;
67902;SDS011;54708;43.612;1.568;2023-05-07T04:38:02;19.08;;;5.05;;
67902;SDS011;54708;43.612;1.568;2023-05-07T04:40:27;10.20;;;4.10;;
67902;SDS011;54708;43.612;1.568;2023-05-07T04:42:53;11.45;;;4.65;;
67902;SDS011;54708;43.612;1.568;2023-05-07T04:45:18;8.55;;;3.92;;
67902;SDS011;54708;43.612;1.568;2023-05-07T04:47:44;14.77;;;4.68;;
67902;SDS011;54708;43.612;1.568;2023-05-07T04:50:09;10.63;;;3.75;;
67902;SDS011;54708;43.612;1.568;2023-05-07T04:52:35;11.52;;;4.28;;
67902;SDS011;54708;43.612;1.568;2023-05-07T04:55:01;8.77;;;4.22;;
67902;SDS011;54708;43.612;1.568;2023-05-07T04:57:27;13.23;;;5.30;;
67902;SDS011;54708;43.612;1.568;2023-05-07T04:59:53;6.68;;;3.85;;
67902;SDS011;54708;43.612;1.568;2023-05-07T05:02:18;15.60;;;4.38;;
67902;SDS011;54708;43.612;1.568;2023-05-07T05:04:44;9.13;;;4.38;;
67902;SDS011;54708;43.612;1.568;2023-05-07T05:07:10;10.38;;;3.67;;
67902;SDS011;54708;43.612;1.568;2023-05-07T05:09:35;10.45;;;3.60;;
67902;SDS011;54708;43.612;1.568;2023-05-07T05:12:00;9.85;;;4.10;;
67902;SDS011;54708;43.612;1.568;2023-05-07T05:14:26;16.70;;;4.55;;
67902;SDS011;54708;43.612;1.568;2023-05-07T05:16:51;9.82;;;3.70;;
67902;SDS011;54708;43.612;1.568;2023-05-07T05:19:17;13.57;;;4.05;;
67902;SDS011;54708;43.612;1.568;2023-05-07T05:21:42;9.65;;;3.88;;
67902;SDS011;54708;43.612;1.568;2023-05-07T05:24:07;13.45;;;4.90;;
67902;SDS011;54708;43.612;1.568;2023-05-07T05:26:33;10.25;;;3.42;;
67902;SDS011;54708;43.612;1.568;2023-05-07T05:28:59;11.55;;;4.50;;
67902;SDS011;54708;43.612;1.568;2023-05-07T05:31:24;10.68;;;3.95;;
67902;SDS011;54708;43.612;1.568;2023-05-07T05:33:50;11.85;;;3.75;;
67902;SDS011;54708;43.612;1.568;2023-05-07T05:36:15;15.60;;;4.90;;
67902;SDS011;54708;43.612;1.568;2023-05-07T05:38:41;9.98;;;4.25;;
67902;SDS011;54708;43.612;1.568;2023-05-07T05:41:06;17.10;;;5.03;;
67902;SDS011;54708;43.612;1.568;2023-05-07T05:43:32;7.30;;;3.63;;
67902;SDS011;54708;43.612;1.568;2023-05-07T05:45:57;9.15;;;3.55;;
67902;SDS011;54708;43.612;1.568;2023-05-07T05:48:23;11.82;;;3.55;;
67902;SDS011;54708;43.612;1.568;2023-05-07T05:50:48;12.32;;;4.63;;
67902;SDS011;54708;43.612;1.568;2023-05-07T05:53:14;11.35;;;3.55;;
67902;SDS011;54708;43.612;1.568;2023-05-07T05:55:40;15.15;;;4.13;;
67902;SDS011;54708;43.612;1.568;2023-05-07T05:58:06;8.57;;;3.88;;
67902;SDS011;54708;43.612;1.568;2023-05-07T06:00:32;13.82;;;4.40;;
67902;SDS011;54708;43.612;1.568;2023-05-07T06:02:57;22.10;;;4.88;;
67902;SDS011;54708;43.612;1.568;2023-05-07T06:05:22;13.45;;;4.25;;
67902;SDS011;54708;43.612;1.568;2023-05-07T06:07:48;10.65;;;4.03;;
67902;SDS011;54708;43.612;1.568;2023-05-07T06:10:13;13.15;;;4.97;;
67902;SDS011;54708;43.612;1.568;2023-05-07T06:12:39;12.20;;;4.20;;
67902;SDS011;54708;43.612;1.568;2023-05-07T06:15:04;9.18;;;3.63;;
67902;SDS011;54708;43.612;1.568;2023-05-07T06:17:30;11.35;;;4.32;;
67902;SDS011;54708;43.612;1.568;2023-05-07T06:19:56;25.50;;;6.90;;
67902;SDS011;54708;43.612;1.568;2023-05-07T06:22:21;12.65;;;4.38;;
67902;SDS011;54708;43.612;1.568;2023-05-07T06:24:46;17.77;;;4.10;;
67902;SDS011;54708;43.612;1.568;2023-05-07T06:27:12;14.23;;;4.35;;
67902;SDS011;54708;43.612;1.568;2023-05-07T06:29:37;14.07;;;4.25;;
67902;SDS011;54708;43.612;1.568;2023-05-07T06:32:09;12.32;;;4.45;;
67902;SDS011;54708;43.612;1.568;2023-05-07T06:37:01;10.65;;;4.72;;
67902;SDS011;54708;43.612;1.568;2023-05-07T06:39:26;15.73;;;4.22;;
67902;SDS011;54708;43.612;1.568;2023-05-07T06:41:52;12.65;;;5.18;;
67902;SDS011;54708;43.612;1.568;2023-05-07T06:44:17;17.98;;;4.68;;
67902;SDS011;54708;43.612;1.568;2023-05-07T06:46:42;12.15;;;4.30;;
67902;SDS011;54708;43.612;1.568;2023-05-07T06:49:08;12.27;;;3.80;;
67902;SDS011;54708;43.612;1.568;2023-05-07T06:51:33;16.23;;;5.00;;
67902;SDS011;54708;43.612;1.568;2023-05-07T06:53:59;14.45;;;4.65;;
67902;SDS011;54708;43.612;1.568;2023-05-07T06:56:24;12.18;;;4.32;;
67902;SDS011;54708;43.612;1.568;2023-05-07T06:58:50;12.30;;;4.45;;
67902;SDS011;54708;43.612;1.568;2023-05-07T07:01:15;13.18;;;4.57;;
67902;SDS011;54708;43.612;1.568;2023-05-07T07:03:41;16.48;;;4.63;;
67902;SDS011;54708;43.612;1.568;2023-05-07T07:06:06;18.75;;;5.32;;
67902;SDS011;54708;43.612;1.568;2023-05-07T07:08:32;11.18;;;4.72;;
67902;SDS011;54708;43.612;1.568;2023-05-07T07:10:57;13.32;;;4.32;;
67902;SDS011;54708;43.612;1.568;2023-05-07T07:13:23;11.77;;;4.05;;
67902;SDS011;54708;43.612;1.568;2023-05-07T07:15:48;14.75;;;4.80;;
67902;SDS011;54708;43.612;1.568;2023-05-07T07:18:13;15.50;;;4.97;;
67902;SDS011;54708;43.612;1.568;2023-05-07T07:20:39;16.48;;;4.90;;
67902;SDS011;54708;43.612;1.568;2023-05-07T07:23:04;9.30;;;4.40;;
67902;SDS011;54708;43.612;1.568;2023-05-07T07:25:30;14.50;;;4.28;;
67902;SDS011;54708;43.612;1.568;2023-05-07T07:27:55;9.85;;;4.32;;
67902;SDS011;54708;43.612;1.568;2023-05-07T07:30:21;18.38;;;4.95;;
67902;SDS011;54708;43.612;1.568;2023-05-07T07:32:46;12.13;;;4.40;;
67902;SDS011;54708;43.612;1.568;2023-05-07T07:35:11;13.63;;;5.25;;
67902;SDS011;54708;43.612;1.568;2023-05-07T07:37:37;12.57;;;4.80;;
67902;SDS011;54708;43.612;1.568;2023-05-07T07:40:02;19.23;;;5.00;;
67902;SDS011;54708;43.612;1.568;2023-05-07T07:42:28;20.02;;;5.47;;
67902;SDS011;54708;43.612;1.568;2023-05-07T07:44:54;13.43;;;5.03;;
67902;SDS011;54708;43.612;1.568;2023-05-07T07:47:20;10.07;;;4.47;;
67902;SDS011;54708;43.612;1.568;2023-05-07T07:49:45;17.20;;;4.28;;
67902;SDS011;54708;43.612;1.568;2023-05-07T07:52:10;13.68;;;4.57;;
67902;SDS011;54708;43.612;1.568;2023-05-07T07:54:36;8.48;;;3.67;;
67902;SDS011;54708;43.612;1.568;2023-05-07T07:57:01;10.38;;;4.38;;
67902;SDS011;54708;43.612;1.568;2023-05-07T07:59:27;12.80;;;4.45;;
67902;SDS011;54708;43.612;1.568;2023-05-07T08:01:52;14.52;;;5.32;;
67902;SDS011;54708;43.612;1.568;2023-05-07T08:04:20;13.85;;;4.60;;
67902;SDS011;54708;43.612;1.568;2023-05-07T08:06:46;11.50;;;4.30;;
67902;SDS011;54708;43.612;1.568;2023-05-07T08:09:11;14.85;;;4.43;;
67902;SDS011;54708;43.612;1.568;2023-05-07T08:11:37;15.52;;;4.78;;
67902;SDS011;54708;43.612;1.568;2023-05-07T08:14:03;12.15;;;4.50;;
67902;SDS011;54708;43.612;1.568;2023-05-07T08:16:29;11.80;;;3.83;;
67902;SDS011;54708;43.612;1.568;2023-05-07T08:18:54;15.20;;;4.07;;
67902;SDS011;54708;43.612;1.568;2023-05-07T08:21:19;17.73;;;4.55;;
67902;SDS011;54708;43.612;1.568;2023-05-07T08:23:45;13.50;;;4.82;;
67902;SDS011;54708;43.612;1.568;2023-05-07T08:26:10;26.02;;;11.57;;
67902;SDS011;54708;43.612;1.568;2023-05-07T08:28:36;16.90;;;6.40;;
67902;SDS011;54708;43.612;1.568;2023-05-07T08:31:01;12.98;;;4.57;;
67902;SDS011;54708;43.612;1.568;2023-05-07T08:33:27;9.93;;;4.05;;
67902;SDS011;54708;43.612;1.568;2023-05-07T08:35:52;14.85;;;4.57;;
67902;SDS011;54708;43.612;1.568;2023-05-07T08:38:18;13.82;;;4.22;;
67902;SDS011;54708;43.612;1.568;2023-05-07T08:40:43;15.63;;;5.90;;
67902;SDS011;54708;43.612;1.568;2023-05-07T08:43:08;15.25;;;4.78;;
67902;SDS011;54708;43.612;1.568;2023-05-07T08:45:37;15.40;;;5.90;;
67902;SDS011;54708;43.612;1.568;2023-05-07T08:48:05;11.20;;;3.70;;
67902;SDS011;54708;43.612;1.568;2023-05-07T08:50:37;16.13;;;5.63;;
67902;SDS011;54708;43.612;1.568;2023-05-07T08:53:03;18.45;;;6.32;;
67902;SDS011;54708;43.612;1.568;2023-05-07T08:55:29;11.05;;;4.05;;
67902;SDS011;54708;43.612;1.568;2023-05-07T08:57:55;15.73;;;4.45;;
67902;SDS011;54708;43.612;1.568;2023-05-07T09:00:20;11.73;;;5.35;;
67902;SDS011;54708;43.612;1.568;2023-05-07T09:02:46;23.33;;;6.15;;
67902;SDS011;54708;43.612;1.568;2023-05-07T09:05:11;13.20;;;4.72;;
67902;SDS011;54708;43.612;1.568;2023-05-07T09:07:37;12.93;;;4.38;;
67902;SDS011;54708;43.612;1.568;2023-05-07T09:10:02;12.60;;;4.05;;
67902;SDS011;54708;43.612;1.568;2023-05-07T09:12:29;15.82;;;4.00;;
67902;SDS011;54708;43.612;1.568;2023-05-07T09:14:54;11.50;;;3.80;;
67902;SDS011;54708;43.612;1.568;2023-05-07T09:17:20;14.63;;;5.57;;
67902;SDS011;54708;43.612;1.568;2023-05-07T09:19:45;14.70;;;3.75;;
67902;SDS011;54708;43.612;1.568;2023-05-07T09:22:11;8.95;;;3.50;;
67902;SDS011;54708;43.612;1.568;2023-05-07T09:24:36;12.63;;;3.17;;
67902;SDS011;54708;43.612;1.568;2023-05-07T09:27:06;8.27;;;4.78;;
67902;SDS011;54708;43.612;1.568;2023-05-07T09:29:31;10.52;;;3.50;;
67902;SDS011;54708;43.612;1.568;2023-05-07T09:32:07;8.93;;;3.70;;
67902;SDS011;54708;43.612;1.568;2023-05-07T09:34:33;7.97;;;3.40;;
67902;SDS011;54708;43.612;1.568;2023-05-07T09:37:03;16.85;;;4.25;;
67902;SDS011;54708;43.612;1.568;2023-05-07T09:39:41;8.35;;;3.60;;
67902;SDS011;54708;43.612;1.568;2023-05-07T09:42:11;8.18;;;4.38;;
67902;SDS011;54708;43.612;1.568;2023-05-07T09:44:37;12.75;;;3.58;;
67902;SDS011;54708;43.612;1.568;2023-05-07T09:47:06;9.60;;;3.50;;
67902;SDS011;54708;43.612;1.568;2023-05-07T09:49:36;14.20;;;3.45;;
67902;SDS011;54708;43.612;1.568;2023-05-07T09:52:02;7.40;;;2.75;;
67902;SDS011;54708;43.612;1.568;2023-05-07T09:54:31;13.95;;;5.07;;
67902;SDS011;54708;43.612;1.568;2023-05-07T09:57:01;8.95;;;3.08;;
67902;SDS011;54708;43.612;1.568;2023-05-07T09:59:27;10.18;;;3.58;;
67902;SDS011;54708;43.612;1.568;2023-05-07T10:01:53;11.38;;;3.47;;
67902;SDS011;54708;43.612;1.568;2023-05-07T10:04:22;12.55;;;3.78;;
67902;SDS011;54708;43.612;1.568;2023-05-07T10:06:47;10.85;;;3.55;;
67902;SDS011;54708;43.612;1.568;2023-05-07T10:09:13;9.10;;;3.70;;
67902;SDS011;54708;43.612;1.568;2023-05-07T10:11:38;11.35;;;3.05;;
67902;SDS011;54708;43.612;1.568;2023-05-07T10:14:04;8.05;;;2.83;;
67902;SDS011;54708;43.612;1.568;2023-05-07T10:16:34;13.13;;;4.35;;
67902;SDS011;54708;43.612;1.568;2023-05-07T10:19:04;19.42;;;4.60;;
67902;SDS011;54708;43.612;1.568;2023-05-07T10:21:30;11.38;;;3.40;;
67902;SDS011;54708;43.612;1.568;2023-05-07T10:24:01;14.73;;;3.65;;
67902;SDS011;54708;43.612;1.568;2023-05-07T10:26:31;11.48;;;3.65;;
67902;SDS011;54708;43.612;1.568;2023-05-07T10:28:59;11.35;;;3.65;;
67902;SDS011;54708;43.612;1.568;2023-05-07T10:34:32;14.80;;;4.40;;
67902;SDS011;54708;43.612;1.568;2023-05-07T10:37:00;9.43;;;3.47;;
67902;SDS011;54708;43.612;1.568;2023-05-07T10:39:27;11.95;;;3.60;;
67902;SDS011;54708;43.612;1.568;2023-05-07T10:41:52;10.25;;;4.18;;
67902;SDS011;54708;43.612;1.568;2023-05-07T10:47:09;11.45;;;3.53;;
67902;SDS011;54708;43.612;1.568;2023-05-07T10:49:36;10.40;;;5.82;;
67902;SDS011;54708;43.612;1.568;2023-05-07T10:54:41;12.13;;;4.60;;
67902;SDS011;54708;43.612;1.568;2023-05-07T10:59:56;8.13;;;2.53;;
67902;SDS011;54708;43.612;1.568;2023-05-07T11:02:22;17.30;;;3.40;;
67902;SDS011;54708;43.612;1.568;2023-05-07T11:07:53;13.75;;;3.97;;
67902;SDS011;54708;43.612;1.568;2023-05-07T11:13:16;14.85;;;3.65;;
67902;SDS011;54708;43.612;1.568;2023-05-07T11:15:43;12.35;;;3.90;;
67902;SDS011;54708;43.612;1.568;2023-05-07T11:18:16;11.50;;;3.35;;
67902;SDS011;54708;43.612;1.568;2023-05-07T11:26:08;11.82;;;5.28;;
67902;SDS011;54708;43.612;1.568;2023-05-07T11:28:38;10.50;;;3.97;;
67902;SDS011;54708;43.612;1.568;2023-05-07T11:31:05;15.23;;;3.90;;
67902;SDS011;54708;43.612;1.568;2023-05-07T11:33:31;13.93;;;3.92;;
67902;SDS011;54708;43.612;1.568;2023-05-07T11:35:57;14.85;;;3.85;;
67902;SDS011;54708;43.612;1.568;2023-05-07T11:38:22;13.23;;;4.63;;
67902;SDS011;54708;43.612;1.568;2023-05-07T11:43:17;8.43;;;3.63;;
67902;SDS011;54708;43.612;1.568;2023-05-07T11:45:42;13.43;;;3.53;;
67902;SDS011;54708;43.612;1.568;2023-05-07T11:48:09;9.07;;;3.65;;
67902;SDS011;54708;43.612;1.568;2023-05-07T11:50:35;8.10;;;2.25;;
67902;SDS011;54708;43.612;1.568;2023-05-07T11:53:06;10.82;;;3.08;;
67902;SDS011;54708;43.612;1.568;2023-05-07T11:55:32;14.80;;;3.90;;
67902;SDS011;54708;43.612;1.568;2023-05-07T11:57:58;6.75;;;3.33;;
67902;SDS011;54708;43.612;1.568;2023-05-07T12:00:23;6.82;;;2.97;;
67902;SDS011;54708;43.612;1.568;2023-05-07T12:02:48;14.02;;;2.85;;
67902;SDS011;54708;43.612;1.568;2023-05-07T12:05:14;8.98;;;3.08;;
67902;SDS011;54708;43.612;1.568;2023-05-07T12:07:39;5.85;;;2.42;;
67902;SDS011;54708;43.612;1.568;2023-05-07T12:10:05;12.18;;;4.35;;
67902;SDS011;54708;43.612;1.568;2023-05-07T12:12:37;5.50;;;2.88;;
67902;SDS011;54708;43.612;1.568;2023-05-07T12:15:03;6.93;;;2.55;;
67902;SDS011;54708;43.612;1.568;2023-05-07T12:17:29;7.20;;;2.47;;
67902;SDS011;54708;43.612;1.568;2023-05-07T12:19:54;8.32;;;2.70;;
67902;SDS011;54708;43.612;1.568;2023-05-07T12:22:20;8.15;;;2.75;;
67902;SDS011;54708;43.612;1.568;2023-05-07T12:24:46;9.70;;;3.22;;
67902;SDS011;54708;43.612;1.568;2023-05-07T12:27:21;6.97;;;2.30;;
67902;SDS011;54708;43.612;1.568;2023-05-07T12:29:46;8.27;;;2.75;;
67902;SDS011;54708;43.612;1.568;2023-05-07T12:32:13;7.38;;;2.58;;
67902;SDS011;54708;43.612;1.568;2023-05-07T12:34:39;8.15;;;2.42;;
67902;SDS011;54708;43.612;1.568;2023-05-07T12:37:05;8.35;;;2.80;;
67902;SDS011;54708;43.612;1.568;2023-05-07T12:39:30;4.85;;;2.33;;
67902;SDS011;54708;43.612;1.568;2023-05-07T12:41:58;10.65;;;2.58;;
67902;SDS011;54708;43.612;1.568;2023-05-07T12:44:24;12.43;;;2.40;;
67902;SDS011;54708;43.612;1.568;2023-05-07T12:46:51;8.50;;;3.17;;
67902;SDS011;54708;43.612;1.568;2023-05-07T12:49:16;5.20;;;2.22;;
67902;SDS011;54708;43.612;1.568;2023-05-07T12:51:43;7.25;;;2.83;;
67902;SDS011;54708;43.612;1.568;2023-05-07T12:54:09;9.02;;;2.80;;
67902;SDS011;54708;43.612;1.568;2023-05-07T12:56:37;14.00;;;2.70;;
67902;SDS011;54708;43.612;1.568;2023-05-07T12:59:02;6.65;;;2.38;;
67902;SDS011;54708;43.612;1.568;2023-05-07T13:01:29;8.23;;;2.38;;
67902;SDS011;54708;43.612;1.568;2023-05-07T13:03:55;5.95;;;2.45;;
67902;SDS011;54708;43.612;1.568;2023-05-07T13:06:22;7.63;;;3.15;;
67902;SDS011;54708;43.612;1.568;2023-05-07T13:08:48;12.73;;;2.85;;
67902;SDS011;54708;43.612;1.568;2023-05-07T13:11:13;8.20;;;2.72;;
67902;SDS011;54708;43.612;1.568;2023-05-07T13:13:39;4.57;;;2.08;;
67902;SDS011;54708;43.612;1.568;2023-05-07T13:16:05;10.77;;;3.15;;
67902;SDS011;54708;43.612;1.568;2023-05-07T13:18:33;5.40;;;2.38;;
67902;SDS011;54708;43.612;1.568;2023-05-07T13:20:58;6.05;;;2.30;;
67902;SDS011;54708;43.612;1.568;2023-05-07T13:23:25;6.35;;;1.85;;
67902;SDS011;54708;43.612;1.568;2023-05-07T13:25:51;7.20;;;2.33;;
67902;SDS011;54708;43.612;1.568;2023-05-07T13:28:18;9.13;;;2.80;;
67902;SDS011;54708;43.612;1.568;2023-05-07T13:30:45;4.93;;;2.20;;
67902;SDS011;54708;43.612;1.568;2023-05-07T13:33:11;4.93;;;1.88;;
67902;SDS011;54708;43.612;1.568;2023-05-07T13:35:36;5.75;;;1.90;;
67902;SDS011;54708;43.612;1.568;2023-05-07T13:38:02;5.78;;;1.95;;
67902;SDS011;54708;43.612;1.568;2023-05-07T13:40:28;5.25;;;1.98;;
67902;SDS011;54708;43.612;1.568;2023-05-07T13:42:53;4.93;;;2.08;;
67902;SDS011;54708;43.612;1.568;2023-05-07T13:45:19;6.00;;;1.90;;
67902;SDS011;54708;43.612;1.568;2023-05-07T13:47:45;5.95;;;2.38;;
67902;SDS011;54708;43.612;1.568;2023-05-07T13:50:11;7.63;;;2.10;;
67902;SDS011;54708;43.612;1.568;2023-05-07T13:52:39;5.15;;;2.20;;
67902;SDS011;54708;43.612;1.568;2023-05-07T13:55:06;9.88;;;2.38;;
67902;SDS011;54708;43.612;1.568;2023-05-07T13:57:32;6.53;;;2.17;;
67902;SDS011;54708;43.612;1.568;2023-05-07T13:59:57;8.18;;;2.25;;
67902;SDS011;54708;43.612;1.568;2023-05-07T14:02:23;4.95;;;2.35;;
67902;SDS011;54708;43.612;1.568;2023-05-07T14:04:48;5.75;;;2.00;;
67902;SDS011;54708;43.612;1.568;2023-05-07T14:07:13;6.18;;;2.40;;
67902;SDS011;54708;43.612;1.568;2023-05-07T14:09:39;8.65;;;2.47;;
67902;SDS011;54708;43.612;1.568;2023-05-07T14:12:04;3.97;;;1.90;;
67902;SDS011;54708;43.612;1.568;2023-05-07T14:14:30;7.05;;;2.47;;
67902;SDS011;54708;43.612;1.568;2023-05-07T14:16:55;9.85;;;2.38;;
67902;SDS011;54708;43.612;1.568;2023-05-07T14:19:21;8.63;;;2.03;;
67902;SDS011;54708;43.612;1.568;2023-05-07T14:21:47;4.93;;;2.20;;
67902;SDS011;54708;43.612;1.568;2023-05-07T14:24:13;5.40;;;1.50;;
67902;SDS011;54708;43.612;1.568;2023-05-07T14:26:39;8.25;;;2.45;;
67902;SDS011;54708;43.612;1.568;2023-05-07T14:29:04;17.85;;;2.78;;
67902;SDS011;54708;43.612;1.568;2023-05-07T14:31:30;6.60;;;2.10;;
67902;SDS011;54708;43.612;1.568;2023-05-07T14:33:55;8.43;;;2.40;;
67902;SDS011;54708;43.612;1.568;2023-05-07T14:36:23;10.05;;;2.17;;
67902;SDS011;54708;43.612;1.568;2023-05-07T14:38:51;5.97;;;2.22;;
67902;SDS011;54708;43.612;1.568;2023-05-07T14:41:17;9.05;;;2.53;;
67902;SDS011;54708;43.612;1.568;2023-05-07T14:43:43;6.20;;;2.15;;
67902;SDS011;54708;43.612;1.568;2023-05-07T14:46:14;9.38;;;2.63;;
67902;SDS011;54708;43.612;1.568;2023-05-07T14:48:40;6.13;;;2.35;;
67902;SDS011;54708;43.612;1.568;2023-05-07T14:51:05;6.85;;;2.35;;
67902;SDS011;54708;43.612;1.568;2023-05-07T14:53:31;4.80;;;2.17;;
67902;SDS011;54708;43.612;1.568;2023-05-07T14:55:56;8.85;;;2.15;;
67902;SDS011;54708;43.612;1.568;2023-05-07T14:58:22;6.22;;;1.88;;
67902;SDS011;54708;43.612;1.568;2023-05-07T15:00:47;9.57;;;2.08;;